sensor_id;sensor_type;location;lat;lon;timestamp;P1;durP1;ratioP1;P2;durP2;ratioP2
10381;SDS011;11635;53.636;10.120;2022-07-30T09:25:34;3.30;;;2.13;;
10381;SDS011;11635;53.636;10.120;2022-07-30T09:28:00;4.07;;;2.47;;
10381;SDS011;11635;53.636;10.120;2022-07-30T09:30:27;4.75;;;2.08;;
10381;SDS011;11635;53.636;10.120;2022-07-30T09:32:57;5.22;;;2.45;;
10381;SDS011;11635;53.636;10.120;2022-07-30T09:35:23;3.50;;;2.10;;
10381;SDS011;11635;53.636;10.120;2022-07-30T09:37:57;3.97;;;2.08;;
10381;SDS011;11635;53.636;10.120;2022-07-30T09:40:23;4.05;;;2.03;;
10381;SDS011;11635;53.636;10.120;2022-07-30T09:43:01;4.05;;;2.55;;
10381;SDS011;11635;53.636;10.120;2022-07-30T09:45:28;4.80;;;2.20;;
10381;SDS011;11635;53.636;10.120;2022-07-30T09:47:54;3.08;;;2.20;;
10381;SDS011;11635;53.636;10.120;2022-07-30T09:50:21;3.60;;;2.33;;
10381;SDS011;11635;53.636;10.120;2022-07-30T09:52:48;5.65;;;2.05;;
10381;SDS011;11635;53.636;10.120;2022-07-30T09:57:52;4.40;;;2.15;;
10381;SDS011;11635;53.636;10.120;2022-07-30T10:00:21;59.13;;;6.20;;
10381;SDS011;11635;53.636;10.120;2022-07-30T10:02:48;18.52;;;2.88;;
10381;SDS011;11635;53.636;10.120;2022-07-30T10:05:16;35.42;;;4.82;;
10381;SDS011;11635;53.636;10.120;2022-07-30T10:10:09;9.10;;;2.15;;
10381;SDS011;11635;53.636;10.120;2022-07-30T10:12:35;103.60;;;8.38;;
10381;SDS011;11635;53.636;10.120;2022-07-30T10:17:30;4.35;;;2.47;;
10381;SDS011;11635;53.636;10.120;2022-07-30T10:24:49;4.13;;;2.40;;
10381;SDS011;11635;53.636;10.120;2022-07-30T10:27:15;5.13;;;2.53;;
10381;SDS011;11635;53.636;10.120;2022-07-30T10:29:41;5.07;;;2.28;;
10381;SDS011;11635;53.636;10.120;2022-07-30T10:37:03;7.43;;;2.03;;
10381;SDS011;11635;53.636;10.120;2022-07-30T10:39:31;5.05;;;2.10;;
10381;SDS011;11635;53.636;10.120;2022-07-30T10:42:00;5.78;;;2.33;;
10381;SDS011;11635;53.636;10.120;2022-07-30T10:44:33;5.22;;;2.53;;
10381;SDS011;11635;53.636;10.120;2022-07-30T10:47:03;4.57;;;2.55;;
10381;SDS011;11635;53.636;10.120;2022-07-30T10:49:31;5.22;;;2.15;;
10381;SDS011;11635;53.636;10.120;2022-07-30T10:51:57;2.53;;;1.85;;
10381;SDS011;11635;53.636;10.120;2022-07-30T10:54:38;4.22;;;2.20;;
10381;SDS011;11635;53.636;10.120;2022-07-30T10:57:06;4.50;;;2.17;;
10381;SDS011;11635;53.636;10.120;2022-07-30T11:02:23;3.22;;;2.10;;
10381;SDS011;11635;53.636;10.120;2022-07-30T11:04:50;5.30;;;2.65;;
10381;SDS011;11635;53.636;10.120;2022-07-30T11:07:26;2.65;;;2.17;;
10381;SDS011;11635;53.636;10.120;2022-07-30T11:09:55;4.25;;;2.25;;
10381;SDS011;11635;53.636;10.120;2022-07-30T11:15:05;3.75;;;2.17;;
10381;SDS011;11635;53.636;10.120;2022-07-30T11:20:13;3.38;;;2.30;;
10381;SDS011;11635;53.636;10.120;2022-07-30T11:22:39;6.22;;;2.50;;
10381;SDS011;11635;53.636;10.120;2022-07-30T11:25:37;8.18;;;2.55;;
10381;SDS011;11635;53.636;10.120;2022-07-30T11:27:56;3.67;;;2.38;;
10381;SDS011;11635;53.636;10.120;2022-07-30T11:30:31;5.93;;;3.03;;
10381;SDS011;11635;53.636;10.120;2022-07-30T11:35:40;2.95;;;2.33;;
10381;SDS011;11635;53.636;10.120;2022-07-30T11:38:07;5.75;;;2.50;;
10381;SDS011;11635;53.636;10.120;2022-07-30T11:40:37;3.05;;;2.47;;
10381;SDS011;11635;53.636;10.120;2022-07-30T11:43:15;5.13;;;2.58;;
10381;SDS011;11635;53.636;10.120;2022-07-30T11:45:42;4.03;;;2.95;;
10381;SDS011;11635;53.636;10.120;2022-07-30T11:48:10;4.97;;;2.90;;
10381;SDS011;11635;53.636;10.120;2022-07-30T11:50:37;4.05;;;3.20;;
10381;SDS011;11635;53.636;10.120;2022-07-30T11:53:04;7.75;;;4.07;;
10381;SDS011;11635;53.636;10.120;2022-07-30T11:55:31;5.22;;;3.28;;
10381;SDS011;11635;53.636;10.120;2022-07-30T11:58:01;6.47;;;3.10;;
10381;SDS011;11635;53.636;10.120;2022-07-30T12:00:35;3.80;;;3.05;;
10381;SDS011;11635;53.636;10.120;2022-07-30T12:03:09;4.55;;;3.13;;
10381;SDS011;11635;53.636;10.120;2022-07-30T12:05:35;8.93;;;4.03;;
10381;SDS011;11635;53.636;10.120;2022-07-30T12:08:02;7.60;;;4.88;;
10381;SDS011;11635;53.636;10.120;2022-07-30T12:10:29;8.15;;;4.47;;
10381;SDS011;11635;53.636;10.120;2022-07-30T12:13:06;7.60;;;3.63;;
10381;SDS011;11635;53.636;10.120;2022-07-30T12:15:34;5.97;;;3.78;;
10381;SDS011;11635;53.636;10.120;2022-07-30T12:18:01;7.43;;;4.15;;
10381;SDS011;11635;53.636;10.120;2022-07-30T12:20:27;5.38;;;4.10;;
10381;SDS011;11635;53.636;10.120;2022-07-30T12:22:54;5.63;;;3.92;;
10381;SDS011;11635;53.636;10.120;2022-07-30T12:25:21;4.93;;;3.90;;
10381;SDS011;11635;53.636;10.120;2022-07-30T12:27:48;9.38;;;6.57;;
10381;SDS011;11635;53.636;10.120;2022-07-30T12:30:16;7.47;;;4.00;;
10381;SDS011;11635;53.636;10.120;2022-07-30T12:32:43;8.73;;;4.22;;
10381;SDS011;11635;53.636;10.120;2022-07-30T12:35:10;5.30;;;3.75;;
10381;SDS011;11635;53.636;10.120;2022-07-30T12:37:37;5.10;;;3.33;;
10381;SDS011;11635;53.636;10.120;2022-07-30T12:40:04;5.95;;;3.58;;
10381;SDS011;11635;53.636;10.120;2022-07-30T12:42:31;4.93;;;3.85;;
10381;SDS011;11635;53.636;10.120;2022-07-30T12:44:57;4.50;;;3.67;;
10381;SDS011;11635;53.636;10.120;2022-07-30T12:47:26;5.03;;;3.90;;
10381;SDS011;11635;53.636;10.120;2022-07-30T12:49:53;3.83;;;3.40;;
10381;SDS011;11635;53.636;10.120;2022-07-30T12:52:20;4.70;;;3.75;;
10381;SDS011;11635;53.636;10.120;2022-07-30T12:54:55;5.55;;;3.78;;
10381;SDS011;11635;53.636;10.120;2022-07-30T12:57:21;4.55;;;3.65;;
10381;SDS011;11635;53.636;10.120;2022-07-30T12:59:58;5.20;;;3.53;;
10381;SDS011;11635;53.636;10.120;2022-07-30T13:02:31;5.32;;;3.20;;
10381;SDS011;11635;53.636;10.120;2022-07-30T13:04:59;4.57;;;3.67;;
10381;SDS011;11635;53.636;10.120;2022-07-30T13:07:25;4.93;;;2.80;;
10381;SDS011;11635;53.636;10.120;2022-07-30T13:10:07;7.07;;;3.70;;
10381;SDS011;11635;53.636;10.120;2022-07-30T13:12:34;9.18;;;4.15;;
10381;SDS011;11635;53.636;10.120;2022-07-30T13:15:00;5.07;;;3.90;;
10381;SDS011;11635;53.636;10.120;2022-07-30T13:17:26;4.13;;;3.35;;
10381;SDS011;11635;53.636;10.120;2022-07-30T13:19:54;5.18;;;3.95;;
10381;SDS011;11635;53.636;10.120;2022-07-30T13:22:20;6.32;;;4.05;;
10381;SDS011;11635;53.636;10.120;2022-07-30T13:24:47;4.45;;;3.65;;
10381;SDS011;11635;53.636;10.120;2022-07-30T13:27:13;5.20;;;3.33;;
10381;SDS011;11635;53.636;10.120;2022-07-30T13:29:41;5.97;;;3.28;;
10381;SDS011;11635;53.636;10.120;2022-07-30T13:32:07;3.70;;;3.40;;
10381;SDS011;11635;53.636;10.120;2022-07-30T13:34:33;4.13;;;3.10;;
10381;SDS011;11635;53.636;10.120;2022-07-30T13:37:01;4.15;;;3.60;;
10381;SDS011;11635;53.636;10.120;2022-07-30T13:39:27;5.38;;;3.63;;
10381;SDS011;11635;53.636;10.120;2022-07-30T13:41:54;5.72;;;3.28;;
10381;SDS011;11635;53.636;10.120;2022-07-30T13:44:20;4.95;;;3.03;;
10381;SDS011;11635;53.636;10.120;2022-07-30T13:46:46;5.65;;;3.22;;
10381;SDS011;11635;53.636;10.120;2022-07-30T13:49:13;3.63;;;2.95;;
10381;SDS011;11635;53.636;10.120;2022-07-30T13:51:39;7.38;;;3.17;;
10381;SDS011;11635;53.636;10.120;2022-07-30T13:54:07;6.75;;;3.17;;
10381;SDS011;11635;53.636;10.120;2022-07-30T13:56:33;3.35;;;2.67;;
10381;SDS011;11635;53.636;10.120;2022-07-30T13:59:00;5.82;;;3.03;;
10381;SDS011;11635;53.636;10.120;2022-07-30T14:01:26;4.45;;;3.00;;
10381;SDS011;11635;53.636;10.120;2022-07-30T14:03:53;4.47;;;3.15;;
10381;SDS011;11635;53.636;10.120;2022-07-30T14:06:19;4.50;;;3.17;;
10381;SDS011;11635;53.636;10.120;2022-07-30T14:08:45;4.22;;;3.13;;
10381;SDS011;11635;53.636;10.120;2022-07-30T14:11:13;5.60;;;4.25;;
10381;SDS011;11635;53.636;10.120;2022-07-30T14:13:40;4.60;;;3.00;;
10381;SDS011;11635;53.636;10.120;2022-07-30T14:16:07;4.30;;;3.03;;
10381;SDS011;11635;53.636;10.120;2022-07-30T14:18:33;4.30;;;2.70;;
10381;SDS011;11635;53.636;10.120;2022-07-30T14:21:00;5.82;;;2.95;;
10381;SDS011;11635;53.636;10.120;2022-07-30T14:23:26;4.45;;;2.78;;
10381;SDS011;11635;53.636;10.120;2022-07-30T14:25:53;3.85;;;3.15;;
10381;SDS011;11635;53.636;10.120;2022-07-30T14:28:21;4.15;;;2.75;;
10381;SDS011;11635;53.636;10.120;2022-07-30T14:30:47;4.95;;;2.70;;
10381;SDS011;11635;53.636;10.120;2022-07-30T14:33:14;4.45;;;2.95;;
10381;SDS011;11635;53.636;10.120;2022-07-30T14:35:41;3.97;;;3.00;;
10381;SDS011;11635;53.636;10.120;2022-07-30T14:38:07;3.60;;;2.65;;
10381;SDS011;11635;53.636;10.120;2022-07-30T14:40:33;5.38;;;2.72;;
10381;SDS011;11635;53.636;10.120;2022-07-30T14:43:00;5.47;;;3.10;;
10381;SDS011;11635;53.636;10.120;2022-07-30T14:45:28;5.10;;;2.88;;
10381;SDS011;11635;53.636;10.120;2022-07-30T14:47:54;4.43;;;2.60;;
10381;SDS011;11635;53.636;10.120;2022-07-30T14:50:20;3.47;;;2.35;;
10381;SDS011;11635;53.636;10.120;2022-07-30T14:52:47;2.90;;;2.50;;
10381;SDS011;11635;53.636;10.120;2022-07-30T14:55:14;4.22;;;2.60;;
10381;SDS011;11635;53.636;10.120;2022-07-30T14:57:40;5.90;;;2.67;;
10381;SDS011;11635;53.636;10.120;2022-07-30T15:00:08;5.63;;;2.75;;
10381;SDS011;11635;53.636;10.120;2022-07-30T15:02:37;6.35;;;3.20;;
10381;SDS011;11635;53.636;10.120;2022-07-30T15:05:05;4.57;;;3.15;;
10381;SDS011;11635;53.636;10.120;2022-07-30T15:07:31;4.28;;;2.40;;
10381;SDS011;11635;53.636;10.120;2022-07-30T15:09:58;5.07;;;2.97;;
10381;SDS011;11635;53.636;10.120;2022-07-30T15:12:24;3.60;;;2.95;;
10381;SDS011;11635;53.636;10.120;2022-07-30T15:14:51;4.20;;;2.90;;
10381;SDS011;11635;53.636;10.120;2022-07-30T15:17:17;4.90;;;3.03;;
10381;SDS011;11635;53.636;10.120;2022-07-30T15:19:45;4.00;;;3.55;;
10381;SDS011;11635;53.636;10.120;2022-07-30T15:22:12;3.88;;;3.40;;
10381;SDS011;11635;53.636;10.120;2022-07-30T15:24:38;4.75;;;3.08;;
10381;SDS011;11635;53.636;10.120;2022-07-30T15:27:04;4.40;;;3.10;;
10381;SDS011;11635;53.636;10.120;2022-07-30T15:29:31;4.00;;;3.17;;
10381;SDS011;11635;53.636;10.120;2022-07-30T15:31:57;3.08;;;2.60;;
10381;SDS011;11635;53.636;10.120;2022-07-30T15:34:24;6.57;;;2.63;;
10381;SDS011;11635;53.636;10.120;2022-07-30T15:36:53;5.15;;;3.10;;
10381;SDS011;11635;53.636;10.120;2022-07-30T15:39:19;9.77;;;6.30;;
10381;SDS011;11635;53.636;10.120;2022-07-30T15:41:45;8.15;;;5.47;;
10381;SDS011;11635;53.636;10.120;2022-07-30T15:44:12;4.78;;;3.35;;
10381;SDS011;11635;53.636;10.120;2022-07-30T15:46:38;5.50;;;4.43;;
10381;SDS011;11635;53.636;10.120;2022-07-30T15:49:05;5.13;;;3.60;;
10381;SDS011;11635;53.636;10.120;2022-07-30T15:51:32;6.05;;;4.50;;
10381;SDS011;11635;53.636;10.120;2022-07-30T15:54:00;4.65;;;3.22;;
10381;SDS011;11635;53.636;10.120;2022-07-30T15:56:27;6.22;;;2.80;;
10381;SDS011;11635;53.636;10.120;2022-07-30T15:58:55;4.53;;;2.95;;
10381;SDS011;11635;53.636;10.120;2022-07-30T16:01:21;5.60;;;3.22;;
10381;SDS011;11635;53.636;10.120;2022-07-30T16:03:48;3.03;;;2.55;;
10381;SDS011;11635;53.636;10.120;2022-07-30T16:06:14;5.22;;;3.10;;
10381;SDS011;11635;53.636;10.120;2022-07-30T16:08:41;4.75;;;3.13;;
10381;SDS011;11635;53.636;10.120;2022-07-30T16:11:08;4.28;;;2.85;;
10381;SDS011;11635;53.636;10.120;2022-07-30T16:13:35;7.22;;;3.20;;
10381;SDS011;11635;53.636;10.120;2022-07-30T16:16:01;5.85;;;3.17;;
10381;SDS011;11635;53.636;10.120;2022-07-30T16:18:28;14.02;;;10.38;;
10381;SDS011;11635;53.636;10.120;2022-07-30T16:20:54;9.20;;;6.30;;
10381;SDS011;11635;53.636;10.120;2022-07-30T16:23:22;6.68;;;2.72;;
10381;SDS011;11635;53.636;10.120;2022-07-30T16:25:49;6.75;;;2.90;;
10381;SDS011;11635;53.636;10.120;2022-07-30T16:28:17;5.63;;;3.08;;
10381;SDS011;11635;53.636;10.120;2022-07-30T16:30:43;4.60;;;3.70;;
10381;SDS011;11635;53.636;10.120;2022-07-30T16:33:10;7.75;;;5.13;;
10381;SDS011;11635;53.636;10.120;2022-07-30T16:35:36;4.78;;;3.38;;
10381;SDS011;11635;53.636;10.120;2022-07-30T16:38:03;4.68;;;2.60;;
10381;SDS011;11635;53.636;10.120;2022-07-30T16:40:29;5.38;;;2.35;;
10381;SDS011;11635;53.636;10.120;2022-07-30T16:42:56;4.22;;;3.15;;
10381;SDS011;11635;53.636;10.120;2022-07-30T16:45:24;3.63;;;2.80;;
10381;SDS011;11635;53.636;10.120;2022-07-30T16:47:50;6.75;;;2.90;;
10381;SDS011;11635;53.636;10.120;2022-07-30T16:50:17;3.55;;;2.67;;
10381;SDS011;11635;53.636;10.120;2022-07-30T16:52:43;3.17;;;2.20;;
10381;SDS011;11635;53.636;10.120;2022-07-30T16:55:10;7.47;;;5.60;;
10381;SDS011;11635;53.636;10.120;2022-07-30T16:57:36;14.70;;;13.40;;
10381;SDS011;11635;53.636;10.120;2022-07-30T17:00:03;10.95;;;9.95;;
10381;SDS011;11635;53.636;10.120;2022-07-30T17:02:30;9.40;;;8.40;;
10381;SDS011;11635;53.636;10.120;2022-07-30T17:04:57;6.88;;;5.15;;
10381;SDS011;11635;53.636;10.120;2022-07-30T17:07:23;4.50;;;4.10;;
10381;SDS011;11635;53.636;10.120;2022-07-30T17:09:49;3.80;;;3.22;;
10381;SDS011;11635;53.636;10.120;2022-07-30T17:12:17;2.63;;;2.42;;
10381;SDS011;11635;53.636;10.120;2022-07-30T17:14:43;3.42;;;2.58;;
10381;SDS011;11635;53.636;10.120;2022-07-30T17:17:10;5.57;;;3.13;;
10381;SDS011;11635;53.636;10.120;2022-07-30T17:19:37;7.82;;;3.80;;
10381;SDS011;11635;53.636;10.120;2022-07-30T17:22:04;9.55;;;5.80;;
10381;SDS011;11635;53.636;10.120;2022-07-30T17:24:30;4.78;;;3.40;;
10381;SDS011;11635;53.636;10.120;2022-07-30T17:26:57;6.72;;;4.00;;
10381;SDS011;11635;53.636;10.120;2022-07-30T17:29:23;9.70;;;6.90;;
10381;SDS011;11635;53.636;10.120;2022-07-30T17:31:49;10.32;;;6.20;;
10381;SDS011;11635;53.636;10.120;2022-07-30T17:34:16;14.05;;;8.75;;
10381;SDS011;11635;53.636;10.120;2022-07-30T17:36:46;4.95;;;3.55;;
10381;SDS011;11635;53.636;10.120;2022-07-30T17:39:12;5.60;;;3.92;;
10381;SDS011;11635;53.636;10.120;2022-07-30T17:41:39;10.48;;;6.00;;
10381;SDS011;11635;53.636;10.120;2022-07-30T17:44:05;6.28;;;5.38;;
10381;SDS011;11635;53.636;10.120;2022-07-30T17:46:32;6.85;;;4.63;;
10381;SDS011;11635;53.636;10.120;2022-07-30T17:48:59;4.38;;;3.55;;
10381;SDS011;11635;53.636;10.120;2022-07-30T17:51:25;6.18;;;3.33;;
10381;SDS011;11635;53.636;10.120;2022-07-30T17:53:53;5.00;;;2.85;;
10381;SDS011;11635;53.636;10.120;2022-07-30T17:56:19;3.35;;;3.05;;
10381;SDS011;11635;53.636;10.120;2022-07-30T17:58:46;3.78;;;2.90;;
10381;SDS011;11635;53.636;10.120;2022-07-30T18:01:12;4.35;;;3.25;;
10381;SDS011;11635;53.636;10.120;2022-07-30T18:03:38;4.13;;;3.72;;
10381;SDS011;11635;53.636;10.120;2022-07-30T18:06:05;4.57;;;2.80;;
10381;SDS011;11635;53.636;10.120;2022-07-30T18:08:31;6.10;;;2.85;;
10381;SDS011;11635;53.636;10.120;2022-07-30T18:10:59;7.30;;;3.60;;
10381;SDS011;11635;53.636;10.120;2022-07-30T18:13:26;6.28;;;3.42;;
10381;SDS011;11635;53.636;10.120;2022-07-30T18:15:52;4.85;;;3.20;;
10381;SDS011;11635;53.636;10.120;2022-07-30T18:18:19;7.60;;;3.50;;
10381;SDS011;11635;53.636;10.120;2022-07-30T18:20:45;6.13;;;3.60;;
10381;SDS011;11635;53.636;10.120;2022-07-30T18:23:11;6.35;;;4.13;;
10381;SDS011;11635;53.636;10.120;2022-07-30T18:25:40;4.03;;;3.38;;
10381;SDS011;11635;53.636;10.120;2022-07-30T18:28:08;6.53;;;3.92;;
10381;SDS011;11635;53.636;10.120;2022-07-30T18:30:35;5.78;;;3.17;;
10381;SDS011;11635;53.636;10.120;2022-07-30T18:33:01;5.82;;;3.35;;
10381;SDS011;11635;53.636;10.120;2022-07-30T18:35:28;4.15;;;3.20;;
10381;SDS011;11635;53.636;10.120;2022-07-30T18:37:54;4.72;;;3.83;;
10381;SDS011;11635;53.636;10.120;2022-07-30T18:40:20;5.95;;;3.75;;
10381;SDS011;11635;53.636;10.120;2022-07-30T18:42:47;5.78;;;3.63;;
10381;SDS011;11635;53.636;10.120;2022-07-30T18:45:15;5.60;;;4.07;;
10381;SDS011;11635;53.636;10.120;2022-07-30T18:47:41;4.28;;;3.70;;
10381;SDS011;11635;53.636;10.120;2022-07-30T18:50:08;5.43;;;3.65;;
10381;SDS011;11635;53.636;10.120;2022-07-30T18:52:35;5.53;;;3.90;;
10381;SDS011;11635;53.636;10.120;2022-07-30T18:55:01;6.03;;;3.60;;
10381;SDS011;11635;53.636;10.120;2022-07-30T18:57:27;6.57;;;3.78;;
10381;SDS011;11635;53.636;10.120;2022-07-30T18:59:54;6.93;;;5.05;;
10381;SDS011;11635;53.636;10.120;2022-07-30T19:02:22;8.95;;;5.47;;
10381;SDS011;11635;53.636;10.120;2022-07-30T19:04:49;5.90;;;5.28;;
10381;SDS011;11635;53.636;10.120;2022-07-30T19:07:16;7.13;;;5.35;;
10381;SDS011;11635;53.636;10.120;2022-07-30T19:09:42;7.05;;;4.35;;
10381;SDS011;11635;53.636;10.120;2022-07-30T19:12:09;5.97;;;4.50;;
10381;SDS011;11635;53.636;10.120;2022-07-30T19:14:35;7.32;;;4.22;;
10381;SDS011;11635;53.636;10.120;2022-07-30T19:17:02;7.15;;;4.20;;
10381;SDS011;11635;53.636;10.120;2022-07-30T19:19:30;6.40;;;4.25;;
10381;SDS011;11635;53.636;10.120;2022-07-30T19:21:56;5.55;;;4.13;;
10381;SDS011;11635;53.636;10.120;2022-07-30T19:24:23;5.22;;;3.53;;
10381;SDS011;11635;53.636;10.120;2022-07-30T19:26:49;6.50;;;3.75;;
10381;SDS011;11635;53.636;10.120;2022-07-30T19:29:16;8.90;;;4.75;;
10381;SDS011;11635;53.636;10.120;2022-07-30T19:31:42;4.85;;;3.60;;
10381;SDS011;11635;53.636;10.120;2022-07-30T19:34:08;5.35;;;4.45;;
10381;SDS011;11635;53.636;10.120;2022-07-30T19:36:37;7.00;;;4.95;;
10381;SDS011;11635;53.636;10.120;2022-07-30T19:39:03;6.07;;;4.45;;
10381;SDS011;11635;53.636;10.120;2022-07-30T19:41:30;13.05;;;10.68;;
10381;SDS011;11635;53.636;10.120;2022-07-30T19:44:03;8.73;;;4.65;;
10381;SDS011;11635;53.636;10.120;2022-07-30T19:46:30;4.45;;;3.92;;
10381;SDS011;11635;53.636;10.120;2022-07-30T19:48:56;9.13;;;5.20;;
10381;SDS011;11635;53.636;10.120;2022-07-30T19:51:23;6.03;;;4.45;;
10381;SDS011;11635;53.636;10.120;2022-07-30T19:53:50;9.85;;;6.35;;
10381;SDS011;11635;53.636;10.120;2022-07-30T19:56:17;10.35;;;6.45;;
10381;SDS011;11635;53.636;10.120;2022-07-30T19:58:43;15.50;;;9.80;;
10381;SDS011;11635;53.636;10.120;2022-07-30T20:01:10;7.43;;;5.68;;
10381;SDS011;11635;53.636;10.120;2022-07-30T20:03:38;8.18;;;4.72;;
10381;SDS011;11635;53.636;10.120;2022-07-30T20:06:05;5.32;;;4.45;;
10381;SDS011;11635;53.636;10.120;2022-07-30T20:08:32;5.50;;;3.60;;
10381;SDS011;11635;53.636;10.120;2022-07-30T20:10:59;5.05;;;4.35;;
10381;SDS011;11635;53.636;10.120;2022-07-30T20:13:26;6.55;;;4.20;;
10381;SDS011;11635;53.636;10.120;2022-07-30T20:15:52;7.43;;;4.00;;
10381;SDS011;11635;53.636;10.120;2022-07-30T20:18:19;6.18;;;4.28;;
10381;SDS011;11635;53.636;10.120;2022-07-30T20:20:46;5.22;;;4.00;;
10381;SDS011;11635;53.636;10.120;2022-07-30T20:23:12;5.95;;;3.60;;
10381;SDS011;11635;53.636;10.120;2022-07-30T20:25:39;6.32;;;3.95;;
10381;SDS011;11635;53.636;10.120;2022-07-30T20:28:07;5.85;;;3.85;;
10381;SDS011;11635;53.636;10.120;2022-07-30T20:30:33;5.57;;;3.60;;
10381;SDS011;11635;53.636;10.120;2022-07-30T20:33:00;4.28;;;3.58;;
10381;SDS011;11635;53.636;10.120;2022-07-30T20:35:26;6.20;;;3.83;;
10381;SDS011;11635;53.636;10.120;2022-07-30T20:37:53;7.20;;;4.45;;
10381;SDS011;11635;53.636;10.120;2022-07-30T20:40:19;7.57;;;4.18;;
10381;SDS011;11635;53.636;10.120;2022-07-30T20:42:46;8.52;;;4.00;;
10381;SDS011;11635;53.636;10.120;2022-07-30T20:45:14;6.43;;;4.70;;
10381;SDS011;11635;53.636;10.120;2022-07-30T20:47:40;6.55;;;4.05;;
10381;SDS011;11635;53.636;10.120;2022-07-30T20:50:07;6.32;;;4.13;;
10381;SDS011;11635;53.636;10.120;2022-07-30T20:52:34;6.80;;;4.53;;
10381;SDS011;11635;53.636;10.120;2022-07-30T20:55:00;6.18;;;4.43;;
10381;SDS011;11635;53.636;10.120;2022-07-30T20:57:27;8.07;;;4.45;;
10381;SDS011;11635;53.636;10.120;2022-07-30T20:59:53;9.68;;;5.15;;
10381;SDS011;11635;53.636;10.120;2022-07-30T21:02:21;8.90;;;5.32;;
10381;SDS011;11635;53.636;10.120;2022-07-30T21:04:47;5.25;;;4.57;;
10381;SDS011;11635;53.636;10.120;2022-07-30T21:07:14;6.30;;;4.22;;
10381;SDS011;11635;53.636;10.120;2022-07-30T21:09:40;8.23;;;4.95;;
10381;SDS011;11635;53.636;10.120;2022-07-30T21:12:06;10.38;;;4.80;;
10381;SDS011;11635;53.636;10.120;2022-07-30T21:14:33;9.85;;;4.65;;
10381;SDS011;11635;53.636;10.120;2022-07-30T21:16:59;8.40;;;4.57;;
10381;SDS011;11635;53.636;10.120;2022-07-30T21:19:27;6.82;;;4.72;;
10381;SDS011;11635;53.636;10.120;2022-07-30T21:21:53;7.20;;;5.15;;
10381;SDS011;11635;53.636;10.120;2022-07-30T21:24:20;6.40;;;4.38;;
10381;SDS011;11635;53.636;10.120;2022-07-30T21:26:48;10.20;;;5.85;;
10381;SDS011;11635;53.636;10.120;2022-07-30T21:29:15;7.30;;;5.65;;
10381;SDS011;11635;53.636;10.120;2022-07-30T21:31:42;9.30;;;5.65;;
10381;SDS011;11635;53.636;10.120;2022-07-30T21:34:08;8.00;;;5.70;;
10381;SDS011;11635;53.636;10.120;2022-07-30T21:36:36;6.90;;;5.18;;
10381;SDS011;11635;53.636;10.120;2022-07-30T21:39:03;6.90;;;5.55;;
10381;SDS011;11635;53.636;10.120;2022-07-30T21:41:29;6.97;;;5.57;;
10381;SDS011;11635;53.636;10.120;2022-07-30T21:43:56;10.05;;;6.57;;
10381;SDS011;11635;53.636;10.120;2022-07-30T21:46:22;15.55;;;6.97;;
10381;SDS011;11635;53.636;10.120;2022-07-30T21:48:49;10.07;;;7.50;;
10381;SDS011;11635;53.636;10.120;2022-07-30T21:51:16;14.63;;;8.63;;
10381;SDS011;11635;53.636;10.120;2022-07-30T21:53:44;12.82;;;8.30;;
10381;SDS011;11635;53.636;10.120;2022-07-30T21:56:11;12.98;;;8.63;;
10381;SDS011;11635;53.636;10.120;2022-07-30T21:58:37;12.68;;;9.95;;
10381;SDS011;11635;53.636;10.120;2022-07-30T22:01:04;15.00;;;9.68;;
10381;SDS011;11635;53.636;10.120;2022-07-30T22:03:31;13.55;;;10.93;;
10381;SDS011;11635;53.636;10.120;2022-07-30T22:05:58;13.55;;;11.18;;
10381;SDS011;11635;53.636;10.120;2022-07-30T22:08:24;18.20;;;12.60;;
10381;SDS011;11635;53.636;10.120;2022-07-30T22:10:55;18.83;;;13.73;;
10381;SDS011;11635;53.636;10.120;2022-07-30T22:13:21;16.20;;;14.60;;
10381;SDS011;11635;53.636;10.120;2022-07-30T22:15:48;17.73;;;14.68;;
10381;SDS011;11635;53.636;10.120;2022-07-30T22:18:14;17.90;;;15.20;;
10381;SDS011;11635;53.636;10.120;2022-07-30T22:20:41;21.67;;;16.45;;
10381;SDS011;11635;53.636;10.120;2022-07-30T22:23:07;19.73;;;17.33;;
10381;SDS011;11635;53.636;10.120;2022-07-30T22:25:33;23.08;;;17.23;;
10381;SDS011;11635;53.636;10.120;2022-07-30T22:28:01;22.95;;;18.77;;
10381;SDS011;11635;53.636;10.120;2022-07-30T22:30:28;22.20;;;17.90;;
10381;SDS011;11635;53.636;10.120;2022-07-30T22:33:05;23.92;;;18.58;;
10381;SDS011;11635;53.636;10.120;2022-07-30T22:35:31;23.58;;;18.55;;
10381;SDS011;11635;53.636;10.120;2022-07-30T22:37:58;21.30;;;17.90;;
10381;SDS011;11635;53.636;10.120;2022-07-30T22:40:24;21.55;;;18.23;;
10381;SDS011;11635;53.636;10.120;2022-07-30T22:42:51;22.88;;;16.58;;
10381;SDS011;11635;53.636;10.120;2022-07-30T22:45:18;20.30;;;16.05;;
10381;SDS011;11635;53.636;10.120;2022-07-30T22:47:45;24.10;;;16.45;;
10381;SDS011;11635;53.636;10.120;2022-07-30T22:50:11;21.45;;;16.58;;
10381;SDS011;11635;53.636;10.120;2022-07-30T22:52:37;21.50;;;15.20;;
10381;SDS011;11635;53.636;10.120;2022-07-30T22:55:04;16.75;;;13.77;;
10381;SDS011;11635;53.636;10.120;2022-07-30T22:57:31;21.30;;;15.60;;
10381;SDS011;11635;53.636;10.120;2022-07-30T22:59:57;16.58;;;13.70;;
10381;SDS011;11635;53.636;10.120;2022-07-30T23:02:25;19.08;;;13.00;;
10381;SDS011;11635;53.636;10.120;2022-07-30T23:04:51;15.55;;;11.98;;
10381;SDS011;11635;53.636;10.120;2022-07-30T23:07:18;16.95;;;12.98;;
10381;SDS011;11635;53.636;10.120;2022-07-30T23:09:44;15.15;;;12.73;;
10381;SDS011;11635;53.636;10.120;2022-07-30T23:12:10;17.33;;;11.65;;
10381;SDS011;11635;53.636;10.120;2022-07-30T23:14:37;15.50;;;12.07;;
10381;SDS011;11635;53.636;10.120;2022-07-30T23:17:03;16.08;;;11.90;;
10381;SDS011;11635;53.636;10.120;2022-07-30T23:19:31;15.60;;;12.02;;
10381;SDS011;11635;53.636;10.120;2022-07-30T23:21:57;14.02;;;11.23;;
10381;SDS011;11635;53.636;10.120;2022-07-30T23:24:24;15.00;;;11.70;;
10381;SDS011;11635;53.636;10.120;2022-07-30T23:26:50;17.73;;;11.80;;
10381;SDS011;11635;53.636;10.120;2022-07-30T23:29:16;14.45;;;10.63;;
10381;SDS011;11635;53.636;10.120;2022-07-30T23:31:43;17.05;;;10.32;;
10381;SDS011;11635;53.636;10.120;2022-07-30T23:34:09;15.48;;;11.57;;
10381;SDS011;11635;53.636;10.120;2022-07-30T23:36:37;14.15;;;11.38;;
10381;SDS011;11635;53.636;10.120;2022-07-30T23:39:03;15.77;;;11.73;;
10381;SDS011;11635;53.636;10.120;2022-07-30T23:41:29;12.55;;;10.88;;
10381;SDS011;11635;53.636;10.120;2022-07-30T23:43:56;14.65;;;11.25;;
10381;SDS011;11635;53.636;10.120;2022-07-30T23:46:22;17.95;;;12.00;;
10381;SDS011;11635;53.636;10.120;2022-07-30T23:48:48;13.32;;;10.98;;
10381;SDS011;11635;53.636;10.120;2022-07-30T23:51:15;12.85;;;11.00;;
10381;SDS011;11635;53.636;10.120;2022-07-30T23:53:42;16.85;;;11.38;;
10381;SDS011;11635;53.636;10.120;2022-07-30T23:56:12;15.00;;;10.63;;
10381;SDS011;11635;53.636;10.120;2022-07-30T23:58:38;11.73;;;10.52;;
